Mars — WDD7627 — position and weather

sailwx.info

Track history (hours):
 
Tides and Currents Weather Stations Pressure Air Temp Water Temp Dewpoint Dewpoint Depression Visibility Wind Speed Wind Dir Waves Ship Positions

Mars

Owner: G & H Towing Company, Galveston, TX. More information available from US FCC via Universal Licensing System and Coast Guard Vessel Documentation Center.

Last reported at 2017-Sep-24 16:51 UTC. Time now 2017-Sep-25 19:09 UTC.
Position N 29°44' W 095°09'.

Length 28 m; draft 4.5 m.

Type: Tug. MMSI: 366921820.

Date/timePositionNaut miles runAvg speedWind from/ knotsBaromVisibWave heightAir tempDewpointWater temp
2017-Sep-24 16:51N 29°44' W 095°09'1 0.1
2017-Sep-24 07:56N 29°44' W 095°08'2 0.4
2017-Sep-24 02:20N 29°45' W 095°10'2 0.9
2017-Sep-24 00:29N 29°44' W 095°12'3 5.1
2017-Sep-23 23:57N 29°44' W 095°15'2 4.4
2017-Sep-23 23:30N 29°45' W 095°17'0 0.0
2017-Sep-23 23:00N 29°45' W 095°17'2 2.0
2017-Sep-23 22:13N 29°44' W 095°16'0 1.2
2017-Sep-23 22:00N 29°44' W 095°16'1 2.1
2017-Sep-23 21:28N 29°43' W 095°15'3 5.6
2017-Sep-23 20:55N 29°45' W 095°12'0 0.0
2017-Sep-23 20:16N 29°45' W 095°12'0 0.0
2017-Sep-23 19:38N 29°45' W 095°12'1 0.0
2017-Sep-22 01:08N 29°45' W 095°10'0 0.0
2017-Sep-22 00:45N 29°45' W 095°10'0 0.0
2017-Sep-22 00:30N 29°45' W 095°10'3 1.0
2017-Sep-21 21:39N 29°44' W 095°07'0 0.1
2017-Sep-21 21:31N 29°44' W 095°07'2 0.2
2017-Sep-21 12:55N 29°44' W 095°09'1 0.1
2017-Sep-21 06:11N 29°44' W 095°09'6 0.1
2017-Sep-19 05:26N 29°44' W 095°02'7 0.3
2017-Sep-18 10:34N 29°45' W 095°10'1 0.1
2017-Sep-17 21:19N 29°44' W 095°09'0 0.0
2017-Sep-15 19:38N 29°44' W 095°09'  
Track history (hours):
 
Tides and Currents Weather Stations Pressure Air Temp Water Temp Dewpoint Dewpoint Depression Visibility Wind Speed Wind Dir Waves Ship Positions

Mars

Owner: G & H Towing Company, Galveston, TX. More information available from US FCC via Universal Licensing System and Coast Guard Vessel Documentation Center.

Last reported at 2017-Sep-24 16:51 UTC. Time now 2017-Sep-25 19:09 UTC.
Position N 29°44' W 095°09'.

Length 28 m; draft 4.5 m.

Type: Tug. MMSI: 366921820.

Date/timePositionNaut miles runAvg speedWind from/ knotsBaromVisibWave heightAir tempDewpointWater temp
2017-Sep-24 16:51N 29°44' W 095°09'1 0.1
2017-Sep-24 07:56N 29°44' W 095°08'2 0.4
2017-Sep-24 02:20N 29°45' W 095°10'2 0.9
2017-Sep-24 00:29N 29°44' W 095°12'3 5.1
2017-Sep-23 23:57N 29°44' W 095°15'2 4.4
2017-Sep-23 23:30N 29°45' W 095°17'0 0.0
2017-Sep-23 23:00N 29°45' W 095°17'2 2.0
2017-Sep-23 22:13N 29°44' W 095°16'0 1.2
2017-Sep-23 22:00N 29°44' W 095°16'1 2.1
2017-Sep-23 21:28N 29°43' W 095°15'3 5.6
2017-Sep-23 20:55N 29°45' W 095°12'0 0.0
2017-Sep-23 20:16N 29°45' W 095°12'0 0.0
2017-Sep-23 19:38N 29°45' W 095°12'1 0.0
2017-Sep-22 01:08N 29°45' W 095°10'0 0.0
2017-Sep-22 00:45N 29°45' W 095°10'0 0.0
2017-Sep-22 00:30N 29°45' W 095°10'3 1.0
2017-Sep-21 21:39N 29°44' W 095°07'0 0.1
2017-Sep-21 21:31N 29°44' W 095°07'2 0.2
2017-Sep-21 12:55N 29°44' W 095°09'1 0.1
2017-Sep-21 06:11N 29°44' W 095°09'6 0.1
2017-Sep-19 05:26N 29°44' W 095°02'7 0.3
2017-Sep-18 10:34N 29°45' W 095°10'1 0.1
2017-Sep-17 21:19N 29°44' W 095°09'0 0.0
2017-Sep-15 19:38N 29°44' W 095°09'  

Dump ship's entire track history